• Join FlightAware (Why Join?)
  • Login
  • US Flag 
12:12PM EDT


 

Airport Tracker/Info


-or-


 

Live Flight TrackerFlight Track Log ✈ UCA5001 ✈ 12-May-2013 ✈ KIAD - KROA

Flight Track Log - Related Links

Times and Time Zones

All times are in EDT time to prevent confusion due to time zone crossing. See the UCA5001 flight status page for this flight to view local times or setup timezone preferences in your user account.

Time Position Orientation Groundspeed Altitude Reporting Facility
EDT Latitude Longitude Course Direction KTS MPH feet Rate Location/Type
03:27PM 38.9167 -77.5333 247° West 142 163 3,000  Level Potomac TRACON
03:28PM 38.9000 -77.5833 247° West 178 205 4,000 420 Climbing Potomac TRACON
03:29PM 38.8667 -77.6500 237° Southwest 230 265 3,900  Descending Potomac TRACON
03:30PM 38.8333 -77.7167 237° Southwest 224 258 4,000 900 Climbing Potomac TRACON
03:31PM 38.7833 -77.7333 195° South 218 251 5,800 1,500 Climbing Potomac TRACON
03:32PM 38.7256 -77.7364 182° South 225 259 7,200 1,560 Climbing Washington Center
03:33PM 38.6628 -77.7425 184° South 220 253 8,900 1,380 Climbing Washington Center
03:34PM 38.6328 -77.7922 232° Southwest 179 206 10,000 1,080 Climbing Washington Center
03:35PM 38.6067 -77.8500 240° Southwest 179 206 11,200 1,200 Climbing Washington Center
03:36PM 38.5783 -77.9075 238° Southwest 191 220 12,500 1,320 Climbing Washington Center
03:37PM 38.5522 -77.9625 239° Southwest 191 220 13,800 720 Climbing Washington Center
03:38PM 38.5242 -78.0172 237° Southwest 185 213 14,000 60 Climbing Washington Center
03:39PM 38.4914 -78.0825 237° Southwest 199 229 14,000  Level Washington Center
03:40PM 38.4567 -78.1475 236° Southwest 213 245 14,000  Level Washington Center
03:41PM 38.4242 -78.2128 238° Southwest 219 252 14,000  Level Washington Center
03:42PM 38.3914 -78.2806 238° Southwest 225 259 14,000  Level Washington Center
03:43PM 38.3564 -78.3453 235° Southwest 225 259 14,000  Level Washington Center
03:44PM 38.3217 -78.4103 236° Southwest 230 265 14,000  Level Washington Center
03:45PM 38.2847 -78.4725 233° Southwest 230 265 14,000  Level Washington Center
03:46PM 38.2497 -78.5372 235° Southwest 224 258 14,000  Level Washington Center
03:47PM 38.2150 -78.5914 231° Southwest 224 258 14,000  Level Washington Center
03:48PM 38.1781 -78.6531 233° Southwest 224 258 14,000 -60 Level Washington Center
03:49PM 38.1408 -78.7178 234° Southwest 224 258 13,900 -60 Descending Washington Center
03:50PM 38.0972 -78.7897 232° Southwest 224 258 13,900  Level Washington Center
03:51PM 38.0603 -78.8514 233° Southwest 224 258 13,900  Level Washington Center
03:52PM 38.0208 -78.9156 232° Southwest 224 258 13,900  Level Washington Center
03:53PM 37.9836 -78.9772 233° Southwest 229 264 13,900  Level Washington Center
03:54PM 37.9486 -79.0336 232° Southwest 229 264 13,900  Level Washington Center
03:55PM 37.9094 -79.0975 232° Southwest 229 264 13,900  Level Washington Center
03:56PM 37.8678 -79.1614 230° Southwest 234 269 13,900  Level Washington Center
03:57PM 37.8283 -79.2228 231° Southwest 234 269 14,000  Climbing Washington Center
03:58PM 37.7825 -79.2939 231° Southwest 234 269 14,000 -540 Level Washington Center
03:59PM 37.7408 -79.3578 230° Southwest 234 269 13,000 -1,260 Descending Washington Center
04:00PM 37.6906 -79.4261 227° Southwest 252 290 11,500 -1,440 Descending Washington Center
04:01PM 37.6556 -79.4844 233° Southwest 252 290 10,200 -1,440 Descending Washington Center
04:02PM 37.6094 -79.5531 230° Southwest 246 283 8,800 -1,320 Descending Washington Center
04:03PM 37.5719 -79.6114 231° Southwest 246 283 7,700 -1,080 Descending Washington Center
04:04PM 37.5097 -79.6603 212° Southwest 241 277 6,700 -900 Descending Washington Center
04:05PM 37.4583 -79.6994 211° Southwest 246 283 5,900 -660 Descending Washington Center
04:06PM 37.3983 -79.7458 212° Southwest 246 283 5,400 -660 Descending Washington Center
04:07PM 37.3447 -79.7928 215° Southwest 246 283 4,600 -780 Descending Washington Center
04:08PM 37.3011 -79.8400 221° Southwest 232 267 3,900 -780 Descending Washington Center
04:10PM 37.3214 -79.9528 218° Southwest  Level Estimated
04:17PM 37.3167 -79.9667 218° Southwest  Level FlightAware Approximate